Airville, Pennsylvania
Current Conditions -  °F | °C
As of 2:53 PM on Sunday 25 Jan 2015 (Local Time) from KLNS Reporting Station
Broken Clouds Broken Clouds  
Wind Chill: 33°   Ceiling: 9500
Heat Index: 38°   Visibility: 10mi
Dew Point: 31°   Wind: 7mph
Humidity: 76%   Direction: 310°NW
Pressure: 29.8"   Gusts: NA
Location:  39.83°N, 76.41°W
Report Text: KLNS 251953Z 31006KT 10SM FEW039 BKN095 BKN120 03/M01 A2980 RMK AO2 SLP095 T00331006
Loading
Personal Weather Stations






























Interactive Weather Map New forecast layout! Learn more

10-Day Weather Forecast

Advertisements
Track Severe Weather on mobile